Time;durP1;ratioP1;P1;durP2;ratioP2;P2;SDS_P1;SDS_P2;PMS_P1;PMS_P2;Temp;Humidity;BMP_temperature;BMP_pressure;BME280_temperature;BME280_humidity;BME280_pressure;Samples;Min_cycle;Max_cycle;Signal;HPM_P1;HPM_P2
2022/02/17 00:02:36;;;;;;;;;22.25;22.25;;;;;4.49;89.88;101364.19;5141995;27;11512;-74
2022/02/17 00:05:32;;;;;;;;;23.25;23.25;;;;;4.54;90.46;101367.75;5142806;27;11473;-74
2022/02/17 00:08:27;;;;;;;;;20.50;20.25;;;;;4.63;89.81;101366.09;5156925;27;11497;-73
2022/02/17 00:11:24;;;;;;;;;23.25;22.00;;;;;4.55;90.07;101357.63;5156637;27;11471;-73
2022/02/17 00:14:20;;;;;;;;;18.75;18.75;;;;;4.63;90.18;101352.41;5135916;27;11491;-73
2022/02/17 00:17:16;;;;;;;;;21.75;21.75;;;;;4.54;90.57;101362.28;5135508;27;11502;-73
2022/02/17 00:20:12;;;;;;;;;22.00;20.00;;;;;4.65;90.04;101341.16;5152047;27;11496;-74
2022/02/17 00:23:08;;;;;;;;;22.25;21.50;;;;;4.62;91.09;101350.75;5136308;27;11480;-73
2022/02/17 00:26:03;;;;;;;;;26.50;23.25;;;;;4.66;90.61;101340.88;5136521;27;11484;-74
2022/02/17 00:29:00;;;;;;;;;23.50;23.50;;;;;4.67;90.60;101342.50;5135758;27;11504;-74
2022/02/17 00:31:55;;;;;;;;;22.75;21.25;;;;;4.64;90.40;101325.81;5135596;27;11499;-73
2022/02/17 00:34:51;;;;;;;;;21.50;19.00;;;;;4.72;90.18;101320.59;5121587;27;11633;-74
2022/02/17 00:37:21;;;;;;;;;21.25;21.25;;;;;4.72;89.86;101325.25;5136719;27;11474;-73
2022/02/17 00:40:17;;;;;;;;;17.75;17.75;;;;;4.66;90.15;101313.47;5135543;27;11561;-73
2022/02/17 00:43:13;;;;;;;;;18.75;17.50;;;;;4.59;89.78;101304.72;5150040;27;11440;-74
2022/02/17 00:46:08;;;;;;;;;25.00;24.25;;;;;4.64;89.23;101301.97;5135122;27;11509;-74
2022/02/17 00:49:04;;;;;;;;;19.75;18.75;;;;;4.66;89.15;101304.44;5135168;27;12299;-73
2022/02/17 00:51:59;;;;;;;;;26.50;25.75;;;;;4.51;89.24;101294.31;5137336;27;11486;-73
2022/02/17 00:54:55;;;;;;;;;17.25;17.25;;;;;4.58;89.15;101289.38;5155376;27;11569;-74
2022/02/17 00:57:51;;;;;;;;;24.00;20.50;;;;;4.51;89.02;101293.50;5134776;27;11496;-74
2022/02/17 01:00:46;;;;;;;;;18.00;18.00;;;;;4.56;89.12;101296.25;5135113;27;11507;-73
2022/02/17 01:03:42;;;;;;;;;23.25;21.75;;;;;4.59;88.88;101296.50;5134704;27;12391;-74
2022/02/17 01:06:39;;;;;;;;;20.00;20.00;;;;;4.58;89.25;101300.34;5134610;27;11496;-73
2022/02/17 01:09:35;;;;;;;;;17.75;17.75;;;;;4.60;88.73;101284.47;5120999;27;11496;-73
2022/02/17 01:12:30;;;;;;;;;21.00;21.00;;;;;4.59;88.61;101288.28;5137196;27;11492;-74
2022/02/17 01:15:26;;;;;;;;;22.50;20.50;;;;;4.58;88.42;101269.38;5154089;27;11507;-74
2022/02/17 01:17:55;;;;;;;;;20.00;20.00;;;;;4.58;88.60;101266.66;5117836;27;11520;-74
2022/02/17 01:20:51;;;;;;;;;19.25;18.25;;;;;4.54;88.41;101266.38;5121018;27;11485;-74
2022/02/17 01:23:47;;;;;;;;;20.25;20.25;;;;;4.65;88.13;101258.97;5148649;27;11458;-74
2022/02/17 01:27:32;;;;;;;;;19.75;19.75;;;;;4.68;87.94;101263.91;5154962;27;11719;-74
2022/02/17 01:30:28;;;;;;;;;16.50;15.75;;;;;4.46;88.27;101267.78;5120651;27;11488;-74
2022/02/17 01:33:24;;;;;;;;;19.00;19.00;;;;;4.47;88.95;101257.63;5145278;27;11471;-73
2022/02/17 01:36:19;;;;;;;;;23.00;23.00;;;;;4.58;88.76;101263.91;5154737;27;11489;-73
2022/02/17 01:47:18;;;;;;;;;23.00;23.00;;;;;4.46;88.93;101256.00;5155506;27;11462;-72
2022/02/17 01:50:14;;;;;;;;;22.50;22.50;;;;;4.55;89.22;101259.81;5152678;27;11496;-73
2022/02/17 01:53:11;;;;;;;;;21.00;21.00;;;;;4.50;89.09;101251.59;5128105;27;11598;-73
2022/02/17 02:04:12;;;;;;;;;20.00;19.25;;;;;4.47;89.89;101235.72;5150986;27;11581;-73
2022/02/17 02:07:08;;;;;;;;;23.00;19.25;;;;;4.40;90.34;101235.19;5153500;27;11469;-74
2022/02/17 02:10:04;;;;;;;;;19.50;19.50;;;;;4.42;90.49;101239.28;5154329;27;12215;-74
2022/02/17 02:17:04;;;;;;;;;16.50;16.50;;;;;4.26;91.41;101245.06;5135032;27;11424;-73
2022/02/17 02:20:17;;;;;;;;;16.75;16.75;;;;;4.31;91.31;101243.13;5145452;27;12242;-73
2022/02/17 02:23:19;;;;;;;;;19.00;18.50;;;;;4.28;91.43;101249.16;5133107;27;11483;-74
2022/02/17 02:26:17;;;;;;;;;21.50;21.50;;;;;4.34;91.98;101248.06;5133121;27;12347;-74
2022/02/17 02:29:13;;;;;;;;;16.00;16.00;;;;;4.32;91.72;101254.91;5133348;27;11490;-74
2022/02/17 02:32:10;;;;;;;;;22.25;22.25;;;;;4.23;92.38;101242.88;5133397;27;11511;-74
2022/02/17 02:35:06;;;;;;;;;24.00;22.25;;;;;4.27;92.10;101247.50;5133241;27;11469;-74
2022/02/17 02:38:02;;;;;;;;;19.25;19.25;;;;;4.33;92.35;101257.38;5133576;27;11650;-74
2022/02/17 02:40:57;;;;;;;;;12.25;12.25;;;;;4.35;91.95;101249.69;5133414;27;11676;-75
2022/02/17 02:43:58;;;;;;;;;14.25;14.25;;;;;4.31;91.93;101242.31;5133601;27;11537;-74
2022/02/17 02:46:58;;;;;;;;;18.50;16.75;;;;;4.29;91.95;101250.78;5131130;27;11469;-74
2022/02/17 02:49:56;;;;;;;;;20.75;19.50;;;;;4.30;92.00;101235.22;5132380;27;11572;-74
2022/02/17 02:52:52;;;;;;;;;20.00;20.00;;;;;4.32;92.04;101238.47;5141036;27;11483;-74
2022/02/17 02:55:20;;;;;;;;;23.25;23.00;;;;;4.26;92.17;101225.88;5136493;27;11485;-74
2022/02/17 02:58:02;;;;;;;;;17.00;17.00;;;;;4.34;91.99;101228.06;5154812;27;12324;-74
2022/02/17 03:00:58;;;;;;;;;17.25;15.50;;;;;4.30;91.79;101229.72;5153907;27;11518;-74
2022/02/17 03:03:54;;;;;;;;;22.75;22.75;;;;;4.34;91.71;101231.63;5133218;27;11468;-74
2022/02/17 03:06:50;;;;;;;;;20.25;18.00;;;;;4.32;91.80;101233.81;5133029;27;11005;-74
2022/02/17 03:09:46;;;;;;;;;18.75;18.75;;;;;4.36;91.49;101236.81;5133108;27;11474;-74
2022/02/17 03:12:42;;;;;;;;;14.75;14.75;;;;;4.32;91.80;101242.03;5133458;27;11517;-74
2022/02/17 03:15:38;;;;;;;;;15.00;14.25;;;;;4.29;91.61;101233.53;5132805;27;11596;-74
2022/02/17 03:18:34;;;;;;;;;22.00;21.00;;;;;4.19;91.97;101234.38;5133811;27;11603;-74
2022/02/17 03:21:29;;;;;;;;;27.50;25.25;;;;;4.26;91.58;101231.38;5143192;27;12306;-74
2022/02/17 03:24:26;;;;;;;;;14.00;14.00;;;;;4.29;91.44;101228.88;5138262;27;11487;-73
2022/02/17 03:27:22;;;;;;;;;23.50;22.25;;;;;4.14;91.58;101237.09;5133132;27;11494;-73
2022/02/17 03:30:17;;;;;;;;;8.50;8.50;;;;;4.17;91.39;101220.16;5133065;27;11494;-73
2022/02/17 03:33:13;;;;;;;;;21.50;20.00;;;;;4.17;91.62;101212.75;5144431;27;11571;-73
2022/02/17 03:36:08;;;;;;;;;21.50;21.50;;;;;4.25;91.10;101218.78;5153085;27;11488;-73
2022/02/17 03:39:05;;;;;;;;;22.00;20.00;;;;;4.12;91.21;101211.94;5152943;27;11497;-73
2022/02/17 03:42:01;;;;;;;;;22.75;22.50;;;;;4.10;91.37;101203.19;5134834;27;11516;-74
2022/02/17 03:44:56;;;;;;;;;20.00;18.50;;;;;4.14;91.28;101196.91;5132279;27;11586;-74
2022/02/17 03:47:52;;;;;;;;;23.50;22.25;;;;;4.16;91.01;101200.16;5132393;27;11597;-74
2022/02/17 03:50:48;;;;;;;;;25.50;23.50;;;;;4.14;90.94;101196.91;5132635;27;11532;-74
2022/02/17 03:53:43;;;;;;;;;20.25;19.25;;;;;4.13;91.33;101197.97;5152493;27;11500;-74
2022/02/17 03:56:39;;;;;;;;;19.00;19.00;;;;;4.15;91.21;101193.06;5151403;27;12262;-73
2022/02/17 03:59:34;;;;;;;;;15.75;15.75;;;;;4.15;91.19;101184.03;5157155;27;11609;-74
2022/02/17 04:02:30;;;;;;;;;23.50;23.00;;;;;4.13;90.86;101170.59;5155259;27;11470;-73
2022/02/17 04:05:26;;;;;;;;;21.75;20.00;;;;;4.11;91.09;101170.06;5154430;27;11639;-74
2022/02/17 04:08:21;;;;;;;;;18.25;18.25;;;;;4.14;91.21;101157.72;5156811;27;11459;-74
2022/02/17 04:11:17;;;;;;;;;22.25;22.25;;;;;4.17;91.05;101168.94;5156579;27;11544;-74
2022/02/17 04:14:13;;;;;;;;;20.25;20.25;;;;;4.13;90.74;101159.63;5136067;27;11503;-74
2022/02/17 04:17:08;;;;;;;;;26.75;26.75;;;;;4.12;91.08;101147.03;5136804;27;11684;-74
2022/02/17 04:20:05;;;;;;;;;16.50;16.50;;;;;4.07;90.99;101154.47;5135742;27;11481;-74
2022/02/17 04:23:00;;;;;;;;;20.00;19.25;;;;;4.07;91.61;101149.81;5136184;27;11477;-74
2022/02/17 04:25:57;;;;;;;;;21.50;21.50;;;;;4.13;91.20;101147.88;5135506;27;11578;-74
2022/02/17 04:28:55;;;;;;;;;20.50;20.50;;;;;4.04;91.51;101168.69;5135553;27;11520;-74
2022/02/17 04:31:23;;;;;;;;;23.25;23.25;;;;;4.10;91.34;101162.13;5136540;27;11508;-74
2022/02/17 04:34:19;;;;;;;;;25.75;24.50;;;;;4.06;91.49;101158.28;5141055;27;11528;-74
2022/02/17 04:37:15;;;;;;;;;20.50;20.00;;;;;4.04;91.74;101150.34;5156195;27;11483;-73
2022/02/17 04:40:12;;;;;;;;;22.00;20.25;;;;;3.99;92.11;101153.13;5155961;27;11480;-74
2022/02/17 04:43:09;;;;;;;;;26.75;26.75;;;;;3.99;92.07;101139.44;5154192;27;11489;-74
2022/02/17 04:46:05;;;;;;;;;16.50;16.00;;;;;4.06;92.04;101131.72;5147464;27;11560;-74
2022/02/17 04:49:01;;;;;;;;;27.25;23.25;;;;;4.03;91.87;101129.56;5155821;27;11478;-74
2022/02/17 04:51:57;;;;;;;;;27.00;24.50;;;;;3.95;92.40;101118.34;5155874;27;11462;-75
2022/02/17 04:54:53;;;;;;;;;22.75;21.25;;;;;4.05;92.07;101119.16;5155655;27;11502;-74
2022/02/17 04:57:21;;;;;;;;;26.50;23.75;;;;;3.93;92.50;101117.81;5156137;27;11478;-73
2022/02/17 05:00:17;;;;;;;;;25.00;25.00;;;;;3.86;92.87;101109.88;5155701;27;11468;-74
2022/02/17 05:03:06;;;;;;;;;24.00;24.00;;;;;3.97;92.58;101099.72;5156534;27;11480;-74
2022/02/17 05:06:02;;;;;;;;;31.00;27.50;;;;;3.92;92.79;101113.44;5150941;27;11503;-74
2022/02/17 05:08:57;;;;;;;;;24.75;24.75;;;;;3.88;92.91;101105.75;5155448;27;11485;-74
2022/02/17 05:11:53;;;;;;;;;23.25;23.00;;;;;3.80;93.59;101111.78;5149114;27;12200;-73
2022/02/17 05:14:21;;;;;;;;;30.00;30.00;;;;;3.95;92.67;101102.75;5117628;27;11490;-73
2022/02/17 05:16:49;;;;;;;;;18.50;18.50;;;;;3.97;92.72;101114.22;5117864;27;11697;-74
2022/02/17 05:19:45;;;;;;;;;23.75;23.50;;;;;3.97;92.35;101105.19;5134099;27;11487;-74
2022/02/17 05:22:42;;;;;;;;;22.25;22.25;;;;;3.88;93.02;101091.25;5134159;27;11620;-74
2022/02/17 05:25:38;;;;;;;;;22.25;20.25;;;;;3.92;92.68;101077.88;5138244;27;11509;-74
2022/02/17 05:28:34;;;;;;;;;18.00;18.00;;;;;3.80;93.13;101083.63;5141699;27;11585;-73
2022/02/17 05:31:30;;;;;;;;;24.00;22.00;;;;;3.97;92.88;101077.84;5144936;27;11475;-74
2022/02/17 05:34:27;;;;;;;;;25.25;25.00;;;;;4.05;92.50;101080.81;5154857;27;11501;-74
2022/02/17 05:37:22;;;;;;;;;14.25;14.25;;;;;4.00;92.29;101069.91;5134125;27;11542;-76
2022/02/17 05:40:18;;;;;;;;;25.75;24.00;;;;;4.04;92.62;101068.25;5154222;27;12305;-74
2022/02/17 05:43:00;;;;;;;;;25.25;25.25;;;;;4.09;92.34;101053.72;5152007;27;11555;-74
2022/02/17 05:45:56;;;;;;;;;25.00;23.50;;;;;4.14;92.36;101046.31;5154310;27;11495;-73
2022/02/17 05:48:52;;;;;;;;;24.75;24.75;;;;;4.16;91.97;101046.03;5154495;27;11528;-75
2022/02/17 05:51:47;;;;;;;;;18.25;18.25;;;;;4.16;91.82;101046.84;5153810;27;12230;-77
2022/02/17 05:54:46;;;;;;;;;29.75;28.50;;;;;4.27;91.35;101049.56;5140398;27;11701;-76
2022/02/17 05:57:42;;;;;;;;;20.50;20.50;;;;;4.36;91.09;101045.13;5153626;27;11476;-73
2022/02/17 06:00:38;;;;;;;;;24.00;23.25;;;;;4.36;91.01;101043.19;5154281;27;11517;-75
2022/02/17 06:03:33;;;;;;;;;23.00;19.75;;;;;4.41;90.82;101037.72;5144518;27;11507;-74
2022/02/17 06:06:15;;;;;;;;;24.25;22.00;;;;;4.57;90.27;101032.16;5154195;27;11484;-74
2022/02/17 06:09:11;;;;;;;;;24.75;23.25;;;;;4.62;89.52;101024.75;5153682;27;12270;-73
2022/02/17 06:12:07;;;;;;;;;19.50;16.75;;;;;4.72;89.09;101024.66;5153595;27;11498;-74
2022/02/17 06:15:03;;;;;;;;;28.00;23.00;;;;;4.81;87.80;101021.31;5153395;27;11504;-74
2022/02/17 06:17:59;;;;;;;;;23.00;21.50;;;;;4.86;87.67;101005.69;5154021;27;11498;-74
2022/02/17 06:20:55;;;;;;;;;20.00;19.50;;;;;4.94;87.26;101015.22;5153091;27;11602;-74
2022/02/17 06:23:50;;;;;;;;;21.75;21.75;;;;;5.06;87.00;101007.47;5140063;27;11614;-75
2022/02/17 06:26:46;;;;;;;;;22.50;21.50;;;;;5.10;84.98;101007.69;5133184;27;11499;-75
2022/02/17 06:29:43;;;;;;;;;24.75;24.00;;;;;5.19;84.92;101004.03;5136779;27;11501;-73
2022/02/17 06:32:47;;;;;;;;;31.75;31.75;;;;;5.33;84.18;101008.88;5121143;27;12257;-75
2022/02/17 06:35:42;;;;;;;;;18.25;17.00;;;;;5.35;83.41;101004.72;5136251;27;11547;-75
2022/02/17 06:38:38;;;;;;;;;22.25;21.25;;;;;5.36;83.48;100994.56;5132801;27;11502;-74
2022/02/17 06:41:34;;;;;;;;;24.50;24.50;;;;;5.37;83.51;100987.97;5143230;27;11496;-75
2022/02/17 06:44:29;;;;;;;;;13.50;13.50;;;;;5.50;82.39;100979.88;5139736;27;11506;-73
2022/02/17 06:47:25;;;;;;;;;17.75;17.25;;;;;5.62;81.85;100976.75;5153311;27;11549;-74
2022/02/17 06:50:21;;;;;;;;;25.25;21.25;;;;;5.74;81.18;100973.59;5153120;27;12288;-74
2022/02/17 06:53:17;;;;;;;;;26.75;24.25;;;;;5.90;80.81;100977.81;5146088;27;11596;-73
2022/02/17 06:56:12;;;;;;;;;16.25;16.25;;;;;5.96;80.69;100976.66;5118881;27;12311;-75
2022/02/17 06:59:08;;;;;;;;;26.25;22.25;;;;;5.91;80.56;100968.50;5132985;27;11471;-74
2022/02/17 07:02:04;;;;;;;;;18.50;18.50;;;;;5.95;80.70;100975.03;5132480;27;11493;-74
2022/02/17 07:05:01;;;;;;;;;15.00;14.00;;;;;5.96;80.50;100973.91;5132416;27;11481;-77
2022/02/17 07:07:56;;;;;;;;;17.50;17.50;;;;;5.89;81.34;100962.44;5136712;27;12275;-75
2022/02/17 07:10:55;;;;;;;;;17.75;17.75;;;;;5.87;81.68;100961.94;5133446;27;11492;-76
2022/02/17 07:13:50;;;;;;;;;18.00;17.75;;;;;5.94;81.39;100961.63;5122820;27;11484;-73
2022/02/17 07:16:46;;;;;;;;;23.00;23.00;;;;;5.96;81.77;100964.88;5132239;27;11492;-74
2022/02/17 07:19:15;;;;;;;;;18.00;17.75;;;;;5.84;81.95;100952.38;5133003;27;11496;-76
2022/02/17 07:22:10;;;;;;;;;25.25;22.75;;;;;5.96;81.95;100956.63;5131665;27;11527;-75
2022/02/17 07:25:06;;;;;;;;;26.75;25.00;;;;;5.92;82.16;100953.69;5130824;27;11567;-75
2022/02/17 07:28:03;;;;;;;;;23.50;22.50;;;;;5.90;82.67;100944.03;5132248;27;11489;-77
2022/02/17 07:30:58;;;;;;;;;24.50;24.25;;;;;5.99;82.70;100943.16;5132798;27;11466;-75
2022/02/17 07:33:54;;;;;;;;;20.50;20.25;;;;;5.90;82.81;100936.63;5135698;27;11584;-77
2022/02/17 07:36:22;;;;;;;;;19.75;19.75;;;;;5.94;82.29;100932.22;5147281;27;11466;-76
2022/02/17 07:39:18;;;;;;;;;22.00;22.00;;;;;5.78;83.87;100923.34;5154737;27;11482;-76
2022/02/17 07:41:48;;;;;;;;;20.00;18.25;;;;;5.95;82.72;100927.56;5157125;27;12241;-76
2022/02/17 07:44:43;;;;;;;;;18.50;18.50;;;;;5.91;82.85;100910.06;5156632;27;11507;-77
2022/02/17 07:47:44;;;;;;;;;19.00;19.00;;;;;5.97;82.43;100920.66;5135837;27;12265;-74
2022/02/17 07:50:40;;;;;;;;;17.25;17.25;;;;;6.02;82.41;100908.78;5135830;27;11501;-75
2022/02/17 07:53:36;;;;;;;;;20.75;20.75;;;;;5.89;82.80;100909.47;5136076;27;11493;-76
2022/02/17 07:56:32;;;;;;;;;14.00;14.00;;;;;5.68;84.07;100904.25;5147586;27;11520;-73
2022/02/17 07:58:59;;;;;;;;;21.75;19.25;;;;;5.99;82.64;100893.75;5157493;27;12145;-72
2022/02/17 08:01:55;;;;;;;;;14.50;14.50;;;;;5.98;82.94;100892.09;5156765;27;11538;-73
2022/02/17 08:04:51;;;;;;;;;13.50;13.50;;;;;5.88;83.15;100880.41;5156193;27;11479;-76
2022/02/17 08:07:46;;;;;;;;;19.75;19.75;;;;;5.87;83.52;100876.84;5152224;27;11496;-79
2022/02/17 08:10:42;;;;;;;;;24.50;24.50;;;;;6.01;83.72;100874.22;5156598;27;11469;-78
2022/02/17 08:13:39;;;;;;;;;18.00;18.00;;;;;5.86;83.95;100873.28;5156343;27;11472;-78
2022/02/17 08:16:35;;;;;;;;;16.25;16.25;;;;;6.08;83.13;100870.00;5142490;27;11664;-77
2022/02/17 08:19:33;;;;;;;;;18.00;18.00;;;;;6.22;82.50;100870.06;5139091;27;11508;-77
2022/02/17 08:22:02;;;;;;;;;23.50;21.50;;;;;6.27;82.33;100856.25;5118497;27;11510;-78
2022/02/17 08:24:58;;;;;;;;;18.50;18.50;;;;;6.22;82.29;100856.34;5135380;27;11597;-78
2022/02/17 08:27:54;;;;;;;;;22.25;20.50;;;;;6.49;81.42;100857.56;5135894;27;11589;-77
2022/02/17 08:30:50;;;;;;;;;18.75;18.75;;;;;6.45;81.58;100857.38;5135335;27;11668;-78
2022/02/17 08:33:45;;;;;;;;;23.00;22.00;;;;;6.50;81.69;100857.25;5121767;27;11479;-77
2022/02/17 08:36:41;;;;;;;;;16.25;16.25;;;;;6.59;81.15;100851.91;5136113;27;11495;-78
2022/02/17 08:39:37;;;;;;;;;18.75;18.50;;;;;6.86;80.47;100843.75;5134178;27;11434;-77
2022/02/17 08:42:33;;;;;;;;;14.50;14.50;;;;;6.93;79.76;100829.59;5134394;27;11514;-77
2022/02/17 08:45:30;;;;;;;;;14.75;14.75;;;;;6.97;79.85;100836.94;5124736;27;11481;-77
2022/02/17 08:48:26;;;;;;;;;16.00;16.00;;;;;7.06;79.77;100823.31;5142443;27;11421;-76
2022/02/17 08:51:24;;;;;;;;;17.00;15.50;;;;;7.15;79.03;100812.41;5155146;27;11442;-77
2022/02/17 08:54:19;;;;;;;;;19.25;17.75;;;;;7.23;79.07;100807.03;5154872;27;11506;-77
2022/02/17 08:57:17;;;;;;;;;16.00;16.00;;;;;7.18;78.58;100804.34;5139831;27;11512;-77
2022/02/17 08:59:45;;;;;;;;;16.25;16.00;;;;;7.22;78.36;100799.06;5156926;27;11429;-78
2022/02/17 09:02:13;;;;;;;;;21.75;21.75;;;;;7.28;78.07;100786.81;5138739;27;11440;-78
2022/02/17 09:05:10;;;;;;;;;28.75;24.25;;;;;7.39;77.64;100773.69;5124982;27;11406;-77
2022/02/17 09:08:06;;;;;;;;;15.50;15.50;;;;;7.47;76.82;100764.72;5138890;27;11415;-77
2022/02/17 09:11:04;;;;;;;;;17.75;17.75;;;;;7.42;76.62;100760.13;5134419;27;11438;-76
2022/02/17 09:13:59;;;;;;;;;18.25;16.75;;;;;7.65;76.28;100754.69;5134449;27;11390;-78
2022/02/17 09:16:55;;;;;;;;;15.25;15.25;;;;;7.92;74.84;100760.13;5149097;27;11417;-78
2022/02/17 09:19:23;;;;;;;;;23.00;19.75;;;;;8.06;73.80;100746.28;5135156;27;11439;-77
2022/02/17 09:22:19;;;;;;;;;18.25;16.50;;;;;7.97;73.04;100740.69;5135663;27;11439;-76
2022/02/17 09:25:15;;;;;;;;;18.00;17.75;;;;;8.16;72.59;100731.44;5133898;27;11501;-76
2022/02/17 09:28:10;;;;;;;;;20.75;19.50;;;;;8.17;71.39;100733.06;5134805;27;11451;-77
2022/02/17 09:31:07;;;;;;;;;17.00;16.75;;;;;8.22;70.92;100717.25;5134119;27;11550;-76
2022/02/17 09:33:57;;;;;;;;;15.75;15.75;;;;;8.35;69.75;100713.59;5135160;27;11470;-78
2022/02/17 09:36:53;;;;;;;;;14.50;14.25;;;;;8.23;70.41;100705.09;5120406;27;11494;-78
2022/02/17 09:39:49;;;;;;;;;16.00;16.00;;;;;8.37;69.35;100699.53;5133988;27;11496;-78
2022/02/17 09:42:45;;;;;;;;;15.25;15.25;;;;;8.31;70.22;100689.75;5146477;27;11468;-78
2022/02/17 09:45:49;;;;;;;;;22.25;20.25;;;;;8.37;69.74;100682.19;5133642;27;11514;-78
2022/02/17 09:48:45;;;;;;;;;16.00;16.00;;;;;8.40;69.91;100687.06;5148975;27;11434;-76
2022/02/17 09:51:43;;;;;;;;;16.25;16.25;;;;;8.46;69.25;100683.03;5154565;27;11614;-80
2022/02/17 09:54:11;;;;;;;;;17.75;17.75;;;;;8.28;69.72;100679.31;5154991;27;11396;-77
2022/02/17 09:56:42;;;;;;;;;17.50;17.50;;;;;8.57;69.00;100678.88;5149973;27;11510;-78
2022/02/17 09:59:38;;;;;;;;;16.25;16.25;;;;;8.64;68.22;100673.72;5138597;27;11461;-79
2022/02/17 10:02:25;;;;;;;;;14.25;13.50;;;;;8.64;67.34;100669.00;5155025;27;11288;-79
2022/02/17 10:05:21;;;;;;;;;12.00;12.00;;;;;8.62;67.09;100657.50;5135707;27;12526;-80
2022/02/17 10:07:49;;;;;;;;;18.50;16.75;;;;;8.59;66.18;100649.88;5134021;27;11175;-81
2022/02/17 10:10:23;;;;;;;;;17.75;17.25;;;;;8.83;65.74;100637.63;5134748;27;11449;-78
2022/02/17 10:13:04;;;;;;;;;7.50;6.00;;;;;8.97;65.41;100640.22;5137972;27;11275;-78
2022/02/17 10:16:01;;;;;;;;;14.25;13.75;;;;;9.07;64.97;100645.47;5132909;27;11130;-78
2022/02/17 10:19:10;;;;;;;;;16.25;16.25;;;;;9.03;64.67;100625.97;5132078;27;11245;-78
2022/02/17 10:22:11;;;;;;;;;22.50;15.75;;;;;9.08;64.45;100625.81;5119241;27;10994;-74
2022/02/17 10:24:49;;;;;;;;;16.50;15.50;;;;;9.14;64.39;100609.94;5132716;27;12174;-74
2022/02/17 10:27:29;;;;;;;;;13.50;13.50;;;;;9.19;64.45;100609.75;5133698;27;11965;-75
2022/02/17 10:30:08;;;;;;;;;12.50;12.50;;;;;9.26;63.72;100617.56;5134108;27;11863;-73
2022/02/17 10:33:07;;;;;;;;;13.50;13.25;;;;;9.32;62.63;100596.94;5133898;27;11758;-75
2022/02/17 10:35:39;;;;;;;;;12.50;12.00;;;;;9.38;61.98;100590.13;5133835;27;10894;-76
2022/02/17 10:38:35;;;;;;;;;13.75;12.75;;;;;9.41;61.52;100581.19;5127095;27;10961;-75
2022/02/17 10:41:50;;;;;;;;;15.25;15.25;;;;;9.47;61.46;100580.69;5132718;27;11212;-76
2022/02/17 10:44:46;;;;;;;;;13.00;13.00;;;;;9.51;60.84;100575.34;5133602;27;10838;-75
2022/02/17 10:47:42;;;;;;;;;8.25;8.25;;;;;9.65;60.15;100564.91;5133172;27;10843;-76
2022/02/17 10:50:37;;;;;;;;;15.75;15.00;;;;;9.65;59.54;100548.34;5136380;27;10843;-87
2022/02/17 10:53:37;;;;;;;;;12.00;10.50;;;;;9.81;59.48;100548.63;5123290;27;10929;-83
2022/02/17 10:56:35;;;;;;;;;11.25;11.25;;;;;9.90;58.44;100538.41;5143098;27;10808;-82
2022/02/17 11:02:24;;;;;;;;;10.00;10.00;;;;;10.00;58.57;100524.22;5134103;27;10919;-83
2022/02/17 11:04:53;;;;;;;;;9.00;9.00;;;;;9.96;58.95;100514.16;5134826;27;10697;-84
2022/02/17 11:07:49;;;;;;;;;14.00;14.00;;;;;10.06;58.58;100513.78;5124691;27;10544;-83
2022/02/17 11:10:45;;;;;;;;;8.50;8.50;;;;;10.07;58.30;100514.59;5127870;27;11558;-83
2022/02/17 11:13:23;;;;;;;;;10.50;10.50;;;;;10.06;57.89;100511.03;5140827;27;10728;-84
2022/02/17 11:16:23;;;;;;;;;11.50;11.50;;;;;10.11;58.03;100504.50;5141729;27;10601;-86
2022/02/17 11:19:19;;;;;;;;;20.75;20.75;;;;;10.20;57.24;100497.81;5131208;27;10491;-81
2022/02/17 11:22:03;;;;;;;;;9.75;9.25;;;;;10.16;57.65;100494.06;5142589;27;10921;-81
2022/02/17 11:24:47;;;;;;;;;12.50;10.75;;;;;10.09;58.05;100476.41;5158646;27;10551;-82
2022/02/17 11:27:29;;;;;;;;;11.50;11.50;;;;;10.23;57.38;100469.53;5122368;27;10685;-83
2022/02/17 11:30:22;;;;;;;;;8.75;8.75;;;;;10.29;57.48;100456.31;5135063;27;11333;-81
2022/02/17 11:33:32;;;;;;;;;15.00;14.00;;;;;10.25;58.00;100447.88;5140968;27;10678;-82
2022/02/17 11:36:30;;;;;;;;;11.50;11.50;;;;;10.39;56.78;100444.88;5123214;27;11354;-86
2022/02/17 11:39:58;;;;;;;;;14.00;14.00;;;;;10.47;56.49;100434.91;5136743;27;10574;-86
2022/02/17 11:43:04;;;;;;;;;7.25;7.25;;;;;10.68;55.67;100437.69;5137087;27;10542;-84
2022/02/17 11:45:44;;;;;;;;;13.00;10.75;;;;;11.25;54.40;100443.31;5141021;27;10598;-84
2022/02/17 11:48:45;;;;;;;;;11.25;11.25;;;;;11.60;53.80;100427.16;5122983;27;11355;-83
2022/02/17 11:51:21;;;;;;;;;10.00;10.00;;;;;11.85;53.21;100432.75;5147224;27;10282;-76
2022/02/17 11:54:16;;;;;;;;;16.00;14.00;;;;;11.86;52.87;100428.81;5145982;27;10150;-78
2022/02/17 11:56:50;;;;;;;;;14.75;14.75;;;;;11.94;52.41;100428.69;5139083;27;10244;-78
2022/02/17 11:59:36;;;;;;;;;9.25;9.25;;;;;12.08;51.40;100433.91;5152579;27;10166;-78
2022/02/17 12:02:08;;;;;;;;;14.75;14.75;;;;;11.94;51.89;100428.69;5152441;27;9833;-78
2022/02/17 12:05:16;;;;;;;;;10.50;10.50;;;;;11.79;51.69;100428.53;5136681;27;9844;-76
2022/02/17 12:07:44;;;;;;;;;16.50;16.50;;;;;11.80;51.92;100419.91;5129090;27;9692;-79
2022/02/17 12:10:32;;;;;;;;;11.25;10.00;;;;;11.73;51.83;100414.13;5155366;27;9907;-78
2022/02/17 12:13:01;;;;;;;;;9.00;9.00;;;;;11.64;51.90;100405.09;5157667;27;10050;-76
2022/02/17 12:15:31;;;;;;;;;12.50;11.00;;;;;11.69;51.73;100402.91;5156070;27;9976;-77
2022/02/17 12:17:59;;;;;;;;;14.25;13.75;;;;;11.75;51.89;100397.97;5141123;27;10181;-77
2022/02/17 12:20:58;;;;;;;;;9.75;9.75;;;;;11.73;52.06;100386.44;5143438;27;10057;-76
2022/02/17 12:23:55;;;;;;;;;10.75;10.75;;;;;11.76;51.35;100382.16;5156117;27;10060;-77
2022/02/17 12:26:51;;;;;;;;;12.25;11.50;;;;;11.70;50.61;100382.38;5138739;27;9998;-77
2022/02/17 12:29:47;;;;;;;;;10.75;10.75;;;;;11.82;50.22;100375.25;5156084;27;9978;-77
2022/02/17 12:32:42;;;;;;;;;9.00;9.00;;;;;11.79;49.79;100367.59;5125458;27;9995;-75
2022/02/17 12:35:25;;;;;;;;;11.25;9.75;;;;;11.95;48.94;100363.81;5135238;27;10078;-75
2022/02/17 12:38:22;;;;;;;;;10.75;9.75;;;;;11.75;48.80;100344.53;5142788;27;10790;-75
2022/02/17 12:41:20;;;;;;;;;20.75;14.50;;;;;11.78;49.32;100333.53;5122500;27;10401;-75
2022/02/17 12:44:24;;;;;;;;;9.50;9.50;;;;;12.04;47.92;100313.81;5141938;27;10314;-76
2022/02/17 12:46:56;;;;;;;;;15.00;15.00;;;;;12.45;47.39;100318.19;5144174;27;10158;-74
2022/02/17 12:49:34;;;;;;;;;8.75;8.75;;;;;12.81;46.93;100319.19;5143845;27;10034;-75
2022/02/17 12:52:17;;;;;;;;;10.75;10.75;;;;;12.86;46.57;100313.38;5145769;27;9740;-74
2022/02/17 12:54:57;;;;;;;;;15.25;14.50;;;;;13.01;45.67;100307.03;5138431;27;9754;-75
2022/02/17 12:57:29;;;;;;;;;12.75;11.00;;;;;13.00;45.80;100302.66;5136090;27;9606;-75
2022/02/17 13:00:25;;;;;;;;;11.00;11.00;;;;;13.06;45.54;100292.09;5134955;27;10546;-75
2022/02/17 13:02:59;;;;;;;;;30.50;26.25;;;;;13.08;46.14;100298.91;5127467;27;9554;-74
2022/02/17 13:06:17;;;;;;;;;23.50;23.00;;;;;13.18;46.14;100294.78;5144274;27;9748;-74
2022/02/17 13:08:56;;;;;;;;;9.00;9.00;;;;;13.27;45.48;100280.75;5144254;27;10133;-74
2022/02/17 13:11:53;;;;;;;;;11.00;11.00;;;;;13.13;46.45;100275.63;5142150;27;9463;-74
2022/02/17 13:14:53;;;;;;;;;11.00;11.00;;;;;13.01;46.37;100273.72;5146628;27;9520;-75
2022/02/17 13:17:36;;;;;;;;;9.75;6.00;;;;;12.75;47.95;100259.56;5134227;27;9606;-75
2022/02/17 13:20:26;;;;;;;;;12.00;12.00;;;;;12.43;48.77;100262.28;5146201;27;9678;-76
2022/02/17 13:23:23;;;;;;;;;11.25;11.25;;;;;12.40;49.27;100259.38;5154901;27;9687;-76
2022/02/17 13:26:29;;;;;;;;;10.75;10.75;;;;;11.98;50.02;100268.09;5154384;27;9599;-75
2022/02/17 13:28:59;;;;;;;;;10.50;10.50;;;;;11.99;50.27;100255.03;5137322;27;10033;-75
2022/02/17 13:31:35;;;;;;;;;13.75;13.75;;;;;11.74;50.95;100259.81;5155459;27;9810;-74
2022/02/17 13:34:30;;;;;;;;;13.50;13.50;;;;;11.60;51.46;100257.41;5155172;27;9749;-75
2022/02/17 13:37:49;;;;;;;;;16.00;13.00;;;;;11.34;52.75;100241.13;5127922;27;10969;-75